sensor_id;sensor_type;location;lat;lon;timestamp;P1;durP1;ratioP1;P2;durP2;ratioP2
83835;SDS011;73859;40.830;43.828;2023-12-04T00:01:34;40.70;;;16.27;;
83835;SDS011;73859;40.830;43.828;2023-12-04T00:04:01;36.83;;;16.35;;
83835;SDS011;73859;40.830;43.828;2023-12-04T00:06:29;37.03;;;16.63;;
83835;SDS011;73859;40.830;43.828;2023-12-04T00:08:56;30.02;;;13.85;;
83835;SDS011;73859;40.830;43.828;2023-12-04T00:11:23;30.85;;;14.88;;
83835;SDS011;73859;40.830;43.828;2023-12-04T00:13:51;32.10;;;13.90;;
83835;SDS011;73859;40.830;43.828;2023-12-04T00:16:19;30.63;;;15.57;;
83835;SDS011;73859;40.830;43.828;2023-12-04T00:18:46;31.40;;;14.48;;
83835;SDS011;73859;40.830;43.828;2023-12-04T00:21:14;28.33;;;12.77;;
83835;SDS011;73859;40.830;43.828;2023-12-04T00:23:41;28.42;;;12.55;;
83835;SDS011;73859;40.830;43.828;2023-12-04T00:26:09;31.90;;;12.90;;
83835;SDS011;73859;40.830;43.828;2023-12-04T00:28:36;26.15;;;12.90;;
83835;SDS011;73859;40.830;43.828;2023-12-04T00:31:04;33.80;;;14.32;;
83835;SDS011;73859;40.830;43.828;2023-12-04T00:33:31;33.22;;;12.60;;
83835;SDS011;73859;40.830;43.828;2023-12-04T00:36:00;29.42;;;13.38;;
83835;SDS011;73859;40.830;43.828;2023-12-04T00:38:27;27.85;;;12.93;;
83835;SDS011;73859;40.830;43.828;2023-12-04T00:40:54;27.60;;;11.57;;
83835;SDS011;73859;40.830;43.828;2023-12-04T00:43:22;31.13;;;13.90;;
83835;SDS011;73859;40.830;43.828;2023-12-04T00:45:49;30.65;;;14.60;;
83835;SDS011;73859;40.830;43.828;2023-12-04T00:48:17;26.42;;;12.15;;
83835;SDS011;73859;40.830;43.828;2023-12-04T00:50:45;30.83;;;12.27;;
83835;SDS011;73859;40.830;43.828;2023-12-04T00:53:13;28.23;;;13.00;;
83835;SDS011;73859;40.830;43.828;2023-12-04T00:55:40;28.65;;;13.43;;
83835;SDS011;73859;40.830;43.828;2023-12-04T00:58:08;26.83;;;13.25;;
83835;SDS011;73859;40.830;43.828;2023-12-04T01:00:36;27.13;;;12.38;;
83835;SDS011;73859;40.830;43.828;2023-12-04T01:03:03;27.65;;;13.35;;
83835;SDS011;73859;40.830;43.828;2023-12-04T01:05:30;28.65;;;13.48;;
83835;SDS011;73859;40.830;43.828;2023-12-04T01:07:58;26.65;;;11.55;;
83835;SDS011;73859;40.830;43.828;2023-12-04T01:10:25;25.33;;;11.95;;
83835;SDS011;73859;40.830;43.828;2023-12-04T01:12:53;23.27;;;10.75;;
83835;SDS011;73859;40.830;43.828;2023-12-04T01:15:20;33.53;;;12.82;;
83835;SDS011;73859;40.830;43.828;2023-12-04T01:17:48;26.10;;;14.30;;
83835;SDS011;73859;40.830;43.828;2023-12-04T01:20:15;29.58;;;12.95;;
83835;SDS011;73859;40.830;43.828;2023-12-04T01:22:43;26.65;;;12.68;;
83835;SDS011;73859;40.830;43.828;2023-12-04T01:25:10;26.52;;;13.48;;
83835;SDS011;73859;40.830;43.828;2023-12-04T01:27:37;32.58;;;13.63;;
83835;SDS011;73859;40.830;43.828;2023-12-04T01:30:05;27.58;;;13.23;;
83835;SDS011;73859;40.830;43.828;2023-12-04T01:32:35;30.65;;;13.35;;
83835;SDS011;73859;40.830;43.828;2023-12-04T01:35:03;24.38;;;10.95;;
83835;SDS011;73859;40.830;43.828;2023-12-04T01:37:31;30.20;;;13.07;;
83835;SDS011;73859;40.830;43.828;2023-12-04T01:39:59;32.55;;;14.32;;
83835;SDS011;73859;40.830;43.828;2023-12-04T01:42:26;30.85;;;13.15;;
83835;SDS011;73859;40.830;43.828;2023-12-04T01:44:54;26.52;;;13.63;;
83835;SDS011;73859;40.830;43.828;2023-12-04T01:47:21;26.67;;;13.25;;
83835;SDS011;73859;40.830;43.828;2023-12-04T01:49:49;32.40;;;14.50;;
83835;SDS011;73859;40.830;43.828;2023-12-04T01:52:17;28.38;;;13.95;;
83835;SDS011;73859;40.830;43.828;2023-12-04T01:54:44;33.30;;;15.38;;
83835;SDS011;73859;40.830;43.828;2023-12-04T01:57:12;29.95;;;13.30;;
83835;SDS011;73859;40.830;43.828;2023-12-04T01:59:39;36.85;;;14.95;;
83835;SDS011;73859;40.830;43.828;2023-12-04T02:02:07;32.67;;;13.95;;
83835;SDS011;73859;40.830;43.828;2023-12-04T02:04:34;39.70;;;13.82;;
83835;SDS011;73859;40.830;43.828;2023-12-04T02:07:01;29.13;;;13.27;;
83835;SDS011;73859;40.830;43.828;2023-12-04T02:09:29;29.17;;;12.60;;
83835;SDS011;73859;40.830;43.828;2023-12-04T02:14:26;27.00;;;12.90;;
83835;SDS011;73859;40.830;43.828;2023-12-04T02:16:53;30.30;;;13.32;;
83835;SDS011;73859;40.830;43.828;2023-12-04T02:19:23;28.42;;;13.38;;
83835;SDS011;73859;40.830;43.828;2023-12-04T02:21:51;32.45;;;13.93;;
83835;SDS011;73859;40.830;43.828;2023-12-04T02:24:18;28.25;;;12.82;;
83835;SDS011;73859;40.830;43.828;2023-12-04T02:26:52;25.70;;;11.85;;
83835;SDS011;73859;40.830;43.828;2023-12-04T02:29:26;31.90;;;13.65;;
83835;SDS011;73859;40.830;43.828;2023-12-04T02:31:58;24.73;;;12.60;;
83835;SDS011;73859;40.830;43.828;2023-12-04T02:34:31;31.00;;;14.63;;
83835;SDS011;73859;40.830;43.828;2023-12-04T02:37:01;28.88;;;14.45;;
83835;SDS011;73859;40.830;43.828;2023-12-04T02:39:30;30.33;;;13.90;;
83835;SDS011;73859;40.830;43.828;2023-12-04T02:41:57;31.45;;;14.80;;
83835;SDS011;73859;40.830;43.828;2023-12-04T02:44:24;32.00;;;14.77;;
83835;SDS011;73859;40.830;43.828;2023-12-04T02:46:52;31.85;;;15.45;;
83835;SDS011;73859;40.830;43.828;2023-12-04T02:49:19;27.90;;;14.77;;
83835;SDS011;73859;40.830;43.828;2023-12-04T02:51:47;33.33;;;13.30;;
83835;SDS011;73859;40.830;43.828;2023-12-04T02:54:14;34.08;;;15.18;;
83835;SDS011;73859;40.830;43.828;2023-12-04T02:56:41;35.00;;;13.18;;
83835;SDS011;73859;40.830;43.828;2023-12-04T02:59:09;30.88;;;13.38;;
83835;SDS011;73859;40.830;43.828;2023-12-04T03:01:36;29.60;;;14.15;;
83835;SDS011;73859;40.830;43.828;2023-12-04T03:04:04;31.33;;;14.43;;
83835;SDS011;73859;40.830;43.828;2023-12-04T03:06:31;34.03;;;14.52;;
83835;SDS011;73859;40.830;43.828;2023-12-04T03:08:59;31.42;;;15.45;;
83835;SDS011;73859;40.830;43.828;2023-12-04T03:11:26;25.58;;;14.15;;
83835;SDS011;73859;40.830;43.828;2023-12-04T03:13:53;33.13;;;15.10;;
83835;SDS011;73859;40.830;43.828;2023-12-04T03:16:21;36.08;;;13.88;;
83835;SDS011;73859;40.830;43.828;2023-12-04T03:18:48;30.33;;;13.60;;
83835;SDS011;73859;40.830;43.828;2023-12-04T03:21:16;37.70;;;16.65;;
83835;SDS011;73859;40.830;43.828;2023-12-04T03:23:43;30.75;;;14.63;;
83835;SDS011;73859;40.830;43.828;2023-12-04T03:26:10;34.08;;;14.55;;
83835;SDS011;73859;40.830;43.828;2023-12-04T03:28:38;29.58;;;13.23;;
83835;SDS011;73859;40.830;43.828;2023-12-04T03:33:34;34.58;;;14.45;;
83835;SDS011;73859;40.830;43.828;2023-12-04T03:36:02;31.20;;;13.93;;
83835;SDS011;73859;40.830;43.828;2023-12-04T03:38:29;31.70;;;12.98;;
83835;SDS011;73859;40.830;43.828;2023-12-04T03:40:56;32.20;;;13.30;;
83835;SDS011;73859;40.830;43.828;2023-12-04T03:43:24;31.55;;;15.55;;
83835;SDS011;73859;40.830;43.828;2023-12-04T03:45:51;26.52;;;14.07;;
83835;SDS011;73859;40.830;43.828;2023-12-04T03:48:18;31.40;;;15.50;;
83835;SDS011;73859;40.830;43.828;2023-12-04T03:50:46;29.63;;;15.43;;
83835;SDS011;73859;40.830;43.828;2023-12-04T03:53:13;41.15;;;19.17;;
83835;SDS011;73859;40.830;43.828;2023-12-04T03:55:41;35.63;;;15.57;;
83835;SDS011;73859;40.830;43.828;2023-12-04T03:58:08;41.30;;;18.63;;
83835;SDS011;73859;40.830;43.828;2023-12-04T04:00:36;37.78;;;15.13;;
83835;SDS011;73859;40.830;43.828;2023-12-04T04:03:08;33.03;;;14.82;;
83835;SDS011;73859;40.830;43.828;2023-12-04T04:05:39;29.15;;;14.95;;
83835;SDS011;73859;40.830;43.828;2023-12-04T04:08:06;39.17;;;16.92;;
83835;SDS011;73859;40.830;43.828;2023-12-04T04:10:34;33.75;;;16.05;;
83835;SDS011;73859;40.830;43.828;2023-12-04T04:13:01;37.58;;;14.23;;
83835;SDS011;73859;40.830;43.828;2023-12-04T04:15:29;30.77;;;14.35;;
83835;SDS011;73859;40.830;43.828;2023-12-04T04:17:56;35.25;;;15.70;;
83835;SDS011;73859;40.830;43.828;2023-12-04T04:20:24;31.95;;;14.43;;
83835;SDS011;73859;40.830;43.828;2023-12-04T04:22:51;31.70;;;15.15;;
83835;SDS011;73859;40.830;43.828;2023-12-04T04:25:20;29.42;;;13.27;;
83835;SDS011;73859;40.830;43.828;2023-12-04T04:27:49;33.70;;;13.27;;
83835;SDS011;73859;40.830;43.828;2023-12-04T04:30:17;29.10;;;16.20;;
83835;SDS011;73859;40.830;43.828;2023-12-04T04:32:44;39.80;;;15.32;;
83835;SDS011;73859;40.830;43.828;2023-12-04T04:35:12;50.92;;;18.58;;
83835;SDS011;73859;40.830;43.828;2023-12-04T04:37:40;46.97;;;18.38;;
83835;SDS011;73859;40.830;43.828;2023-12-04T04:40:11;36.22;;;15.10;;
83835;SDS011;73859;40.830;43.828;2023-12-04T04:42:38;42.22;;;15.50;;
83835;SDS011;73859;40.830;43.828;2023-12-04T04:45:06;46.47;;;15.98;;
83835;SDS011;73859;40.830;43.828;2023-12-04T04:47:33;34.50;;;15.13;;
83835;SDS011;73859;40.830;43.828;2023-12-04T04:50:01;53.10;;;16.98;;
83835;SDS011;73859;40.830;43.828;2023-12-04T04:52:28;30.88;;;16.20;;
83835;SDS011;73859;40.830;43.828;2023-12-04T04:54:58;36.05;;;15.88;;
83835;SDS011;73859;40.830;43.828;2023-12-04T04:57:26;40.85;;;16.73;;
83835;SDS011;73859;40.830;43.828;2023-12-04T04:59:53;41.88;;;17.48;;
83835;SDS011;73859;40.830;43.828;2023-12-04T05:02:20;45.85;;;16.85;;
83835;SDS011;73859;40.830;43.828;2023-12-04T05:04:47;45.80;;;20.35;;
83835;SDS011;73859;40.830;43.828;2023-12-04T05:07:15;69.10;;;29.15;;
83835;SDS011;73859;40.830;43.828;2023-12-04T05:09:43;91.78;;;38.13;;
83835;SDS011;73859;40.830;43.828;2023-12-04T05:12:10;87.78;;;38.05;;
83835;SDS011;73859;40.830;43.828;2023-12-04T05:14:38;84.40;;;40.88;;
83835;SDS011;73859;40.830;43.828;2023-12-04T05:17:05;89.30;;;41.58;;
83835;SDS011;73859;40.830;43.828;2023-12-04T05:19:32;79.50;;;38.70;;
83835;SDS011;73859;40.830;43.828;2023-12-04T05:22:00;85.80;;;37.72;;
83835;SDS011;73859;40.830;43.828;2023-12-04T05:24:27;77.57;;;41.80;;
83835;SDS011;73859;40.830;43.828;2023-12-04T05:26:55;78.07;;;41.65;;
83835;SDS011;73859;40.830;43.828;2023-12-04T05:29:22;79.15;;;36.78;;
83835;SDS011;73859;40.830;43.828;2023-12-04T05:31:49;87.40;;;44.55;;
83835;SDS011;73859;40.830;43.828;2023-12-04T05:34:17;86.78;;;48.83;;
83835;SDS011;73859;40.830;43.828;2023-12-04T05:36:44;78.07;;;39.05;;
83835;SDS011;73859;40.830;43.828;2023-12-04T05:39:12;74.80;;;37.00;;
83835;SDS011;73859;40.830;43.828;2023-12-04T05:41:39;74.32;;;35.03;;
83835;SDS011;73859;40.830;43.828;2023-12-04T05:44:06;70.00;;;33.15;;
83835;SDS011;73859;40.830;43.828;2023-12-04T05:46:34;74.47;;;30.50;;
83835;SDS011;73859;40.830;43.828;2023-12-04T05:49:01;64.45;;;28.65;;
83835;SDS011;73859;40.830;43.828;2023-12-04T05:51:29;68.38;;;28.00;;
83835;SDS011;73859;40.830;43.828;2023-12-04T05:54:00;64.97;;;25.77;;
83835;SDS011;73859;40.830;43.828;2023-12-04T05:56:28;71.07;;;29.08;;
83835;SDS011;73859;40.830;43.828;2023-12-04T06:01:23;57.55;;;25.38;;
83835;SDS011;73859;40.830;43.828;2023-12-04T06:03:51;55.58;;;26.65;;
83835;SDS011;73859;40.830;43.828;2023-12-04T06:06:18;61.00;;;24.13;;
83835;SDS011;73859;40.830;43.828;2023-12-04T06:08:46;62.13;;;25.13;;
83835;SDS011;73859;40.830;43.828;2023-12-04T06:11:13;50.50;;;22.00;;
83835;SDS011;73859;40.830;43.828;2023-12-04T06:13:41;37.25;;;20.23;;
83835;SDS011;73859;40.830;43.828;2023-12-04T06:16:08;37.40;;;19.90;;
83835;SDS011;73859;40.830;43.828;2023-12-04T06:18:36;43.78;;;18.30;;
83835;SDS011;73859;40.830;43.828;2023-12-04T06:21:03;46.65;;;18.67;;
83835;SDS011;73859;40.830;43.828;2023-12-04T06:23:31;45.95;;;18.65;;
83835;SDS011;73859;40.830;43.828;2023-12-04T06:25:59;39.30;;;16.40;;
83835;SDS011;73859;40.830;43.828;2023-12-04T06:28:26;39.63;;;17.80;;
83835;SDS011;73859;40.830;43.828;2023-12-04T06:30:54;41.17;;;17.50;;
83835;SDS011;73859;40.830;43.828;2023-12-04T06:33:22;40.15;;;17.55;;
83835;SDS011;73859;40.830;43.828;2023-12-04T06:35:49;34.05;;;16.38;;
83835;SDS011;73859;40.830;43.828;2023-12-04T06:38:17;34.55;;;16.35;;
83835;SDS011;73859;40.830;43.828;2023-12-04T06:40:46;49.10;;;19.98;;
83835;SDS011;73859;40.830;43.828;2023-12-04T06:43:13;30.65;;;16.75;;
83835;SDS011;73859;40.830;43.828;2023-12-04T06:45:43;33.45;;;16.85;;
83835;SDS011;73859;40.830;43.828;2023-12-04T06:48:12;33.80;;;16.52;;
83835;SDS011;73859;40.830;43.828;2023-12-04T06:50:40;33.42;;;17.23;;
83835;SDS011;73859;40.830;43.828;2023-12-04T06:53:07;36.67;;;17.95;;
83835;SDS011;73859;40.830;43.828;2023-12-04T06:55:35;41.78;;;17.73;;
83835;SDS011;73859;40.830;43.828;2023-12-04T06:58:02;34.90;;;17.42;;
83835;SDS011;73859;40.830;43.828;2023-12-04T07:00:30;37.17;;;18.63;;
83835;SDS011;73859;40.830;43.828;2023-12-04T07:02:58;33.63;;;17.27;;
83835;SDS011;73859;40.830;43.828;2023-12-04T07:05:26;39.72;;;17.58;;
83835;SDS011;73859;40.830;43.828;2023-12-04T07:07:53;36.25;;;18.63;;
83835;SDS011;73859;40.830;43.828;2023-12-04T07:10:20;33.97;;;17.33;;
83835;SDS011;73859;40.830;43.828;2023-12-04T07:12:48;36.95;;;18.77;;
83835;SDS011;73859;40.830;43.828;2023-12-04T07:15:15;37.80;;;18.65;;
83835;SDS011;73859;40.830;43.828;2023-12-04T07:17:43;45.70;;;20.02;;
83835;SDS011;73859;40.830;43.828;2023-12-04T07:20:11;39.95;;;20.92;;
83835;SDS011;73859;40.830;43.828;2023-12-04T07:22:39;37.22;;;20.02;;
83835;SDS011;73859;40.830;43.828;2023-12-04T07:25:07;44.72;;;22.45;;
83835;SDS011;73859;40.830;43.828;2023-12-04T07:27:34;39.25;;;19.63;;
83835;SDS011;73859;40.830;43.828;2023-12-04T07:30:02;37.75;;;18.90;;
83835;SDS011;73859;40.830;43.828;2023-12-04T07:34:59;40.97;;;19.38;;
83835;SDS011;73859;40.830;43.828;2023-12-04T07:37:27;38.67;;;20.05;;
83835;SDS011;73859;40.830;43.828;2023-12-04T07:39:57;47.30;;;19.83;;
83835;SDS011;73859;40.830;43.828;2023-12-04T07:42:24;41.22;;;19.33;;
83835;SDS011;73859;40.830;43.828;2023-12-04T07:44:52;38.25;;;17.73;;
83835;SDS011;73859;40.830;43.828;2023-12-04T07:47:19;46.00;;;21.38;;
83835;SDS011;73859;40.830;43.828;2023-12-04T07:49:46;52.70;;;22.52;;
83835;SDS011;73859;40.830;43.828;2023-12-04T07:52:14;43.55;;;21.40;;
83835;SDS011;73859;40.830;43.828;2023-12-04T07:54:42;47.75;;;22.20;;
83835;SDS011;73859;40.830;43.828;2023-12-04T07:57:09;43.45;;;23.05;;
83835;SDS011;73859;40.830;43.828;2023-12-04T07:59:37;43.50;;;20.70;;
83835;SDS011;73859;40.830;43.828;2023-12-04T08:02:04;51.33;;;23.83;;
83835;SDS011;73859;40.830;43.828;2023-12-04T08:04:31;53.15;;;24.58;;
83835;SDS011;73859;40.830;43.828;2023-12-04T08:06:59;45.03;;;24.08;;
83835;SDS011;73859;40.830;43.828;2023-12-04T08:09:26;54.13;;;26.42;;
83835;SDS011;73859;40.830;43.828;2023-12-04T08:11:54;52.78;;;27.98;;
83835;SDS011;73859;40.830;43.828;2023-12-04T08:14:23;55.20;;;26.13;;
83835;SDS011;73859;40.830;43.828;2023-12-04T08:16:51;61.22;;;28.98;;
83835;SDS011;73859;40.830;43.828;2023-12-04T08:19:18;63.85;;;29.90;;
83835;SDS011;73859;40.830;43.828;2023-12-04T08:21:46;58.28;;;29.02;;
83835;SDS011;73859;40.830;43.828;2023-12-04T08:24:13;60.38;;;31.58;;
83835;SDS011;73859;40.830;43.828;2023-12-04T08:42:00;75.53;;;35.83;;
83835;SDS011;73859;40.830;43.828;2023-12-04T08:44:33;65.15;;;33.65;;
83835;SDS011;73859;40.830;43.828;2023-12-04T08:47:01;61.22;;;29.52;;
83835;SDS011;73859;40.830;43.828;2023-12-04T08:49:28;56.17;;;29.50;;
83835;SDS011;73859;40.830;43.828;2023-12-04T08:52:08;52.25;;;25.27;;
83835;SDS011;73859;40.830;43.828;2023-12-04T08:54:39;58.78;;;28.02;;
83835;SDS011;73859;40.830;43.828;2023-12-04T08:57:08;43.70;;;20.88;;
83835;SDS011;73859;40.830;43.828;2023-12-04T08:59:36;46.45;;;23.13;;
83835;SDS011;73859;40.830;43.828;2023-12-04T09:02:04;61.15;;;24.15;;
83835;SDS011;73859;40.830;43.828;2023-12-04T09:04:31;46.03;;;24.30;;
83835;SDS011;73859;40.830;43.828;2023-12-04T09:07:00;31.13;;;15.27;;
83835;SDS011;73859;40.830;43.828;2023-12-04T09:09:47;31.38;;;14.38;;
83835;SDS011;73859;40.830;43.828;2023-12-04T09:12:16;27.20;;;13.70;;
83835;SDS011;73859;40.830;43.828;2023-12-04T09:14:44;24.83;;;12.15;;
83835;SDS011;73859;40.830;43.828;2023-12-04T09:17:12;21.52;;;11.77;;
83835;SDS011;73859;40.830;43.828;2023-12-04T09:19:40;23.65;;;10.73;;
83835;SDS011;73859;40.830;43.828;2023-12-04T09:22:08;26.75;;;12.07;;
83835;SDS011;73859;40.830;43.828;2023-12-04T09:24:45;23.35;;;11.10;;
83835;SDS011;73859;40.830;43.828;2023-12-04T09:27:12;24.33;;;11.90;;
83835;SDS011;73859;40.830;43.828;2023-12-04T09:29:40;23.90;;;11.68;;
83835;SDS011;73859;40.830;43.828;2023-12-04T09:32:08;18.63;;;10.50;;
83835;SDS011;73859;40.830;43.828;2023-12-04T09:49:05;22.45;;;12.45;;
83835;SDS011;73859;40.830;43.828;2023-12-04T09:51:34;20.10;;;10.90;;
83835;SDS011;73859;40.830;43.828;2023-12-04T09:54:04;25.42;;;12.10;;
83835;SDS011;73859;40.830;43.828;2023-12-04T09:56:33;25.35;;;12.20;;
83835;SDS011;73859;40.830;43.828;2023-12-04T09:59:01;22.95;;;11.98;;
83835;SDS011;73859;40.830;43.828;2023-12-04T10:01:34;22.90;;;11.38;;
83835;SDS011;73859;40.830;43.828;2023-12-04T10:04:03;24.40;;;12.25;;
83835;SDS011;73859;40.830;43.828;2023-12-04T10:06:32;23.88;;;12.20;;
83835;SDS011;73859;40.830;43.828;2023-12-04T10:09:00;28.60;;;12.73;;
83835;SDS011;73859;40.830;43.828;2023-12-04T10:11:27;25.00;;;13.50;;
83835;SDS011;73859;40.830;43.828;2023-12-04T10:13:56;23.20;;;12.20;;
83835;SDS011;73859;40.830;43.828;2023-12-04T10:16:35;25.60;;;13.52;;
83835;SDS011;73859;40.830;43.828;2023-12-04T10:21:55;23.65;;;12.50;;
83835;SDS011;73859;40.830;43.828;2023-12-04T10:24:27;18.75;;;9.88;;
83835;SDS011;73859;40.830;43.828;2023-12-04T10:26:55;20.95;;;10.55;;
83835;SDS011;73859;40.830;43.828;2023-12-04T10:29:23;20.52;;;11.45;;
83835;SDS011;73859;40.830;43.828;2023-12-04T10:31:52;26.55;;;11.52;;
83835;SDS011;73859;40.830;43.828;2023-12-04T10:34:21;23.42;;;11.82;;
83835;SDS011;73859;40.830;43.828;2023-12-04T10:36:53;24.20;;;12.60;;
83835;SDS011;73859;40.830;43.828;2023-12-04T10:39:20;20.83;;;11.07;;
83835;SDS011;73859;40.830;43.828;2023-12-04T10:41:58;22.58;;;11.75;;
83835;SDS011;73859;40.830;43.828;2023-12-04T10:44:28;25.52;;;11.63;;
83835;SDS011;73859;40.830;43.828;2023-12-04T10:46:57;22.90;;;11.73;;
83835;SDS011;73859;40.830;43.828;2023-12-04T10:49:28;27.48;;;13.55;;
83835;SDS011;73859;40.830;43.828;2023-12-04T10:51:56;23.75;;;12.90;;
83835;SDS011;73859;40.830;43.828;2023-12-04T10:54:28;24.13;;;12.65;;
83835;SDS011;73859;40.830;43.828;2023-12-04T10:56:57;21.83;;;11.57;;
83835;SDS011;73859;40.830;43.828;2023-12-04T10:59:32;25.08;;;12.27;;
83835;SDS011;73859;40.830;43.828;2023-12-04T11:02:04;30.90;;;12.77;;
83835;SDS011;73859;40.830;43.828;2023-12-04T11:04:36;26.52;;;13.07;;
83835;SDS011;73859;40.830;43.828;2023-12-04T11:07:03;27.92;;;13.60;;
83835;SDS011;73859;40.830;43.828;2023-12-04T11:09:34;29.17;;;14.63;;
83835;SDS011;73859;40.830;43.828;2023-12-04T11:12:04;27.55;;;14.75;;
83835;SDS011;73859;40.830;43.828;2023-12-04T11:14:39;23.50;;;13.10;;
83835;SDS011;73859;40.830;43.828;2023-12-04T11:17:12;28.60;;;13.85;;
83835;SDS011;73859;40.830;43.828;2023-12-04T11:22:34;26.05;;;14.43;;
83835;SDS011;73859;40.830;43.828;2023-12-04T11:25:06;31.52;;;16.55;;
83835;SDS011;73859;40.830;43.828;2023-12-04T11:27:35;28.95;;;15.27;;
83835;SDS011;73859;40.830;43.828;2023-12-04T11:30:03;30.48;;;15.85;;
83835;SDS011;73859;40.830;43.828;2023-12-04T11:32:43;24.83;;;14.57;;
83835;SDS011;73859;40.830;43.828;2023-12-04T11:35:17;32.22;;;16.85;;
83835;SDS011;73859;40.830;43.828;2023-12-04T11:37:46;30.23;;;15.57;;
83835;SDS011;73859;40.830;43.828;2023-12-04T11:40:17;29.00;;;16.80;;
83835;SDS011;73859;40.830;43.828;2023-12-04T11:42:45;28.08;;;14.98;;
83835;SDS011;73859;40.830;43.828;2023-12-04T11:45:19;31.85;;;16.50;;
83835;SDS011;73859;40.830;43.828;2023-12-04T11:47:51;28.55;;;16.00;;
83835;SDS011;73859;40.830;43.828;2023-12-04T11:50:22;31.25;;;16.10;;
83835;SDS011;73859;40.830;43.828;2023-12-04T11:52:52;31.48;;;15.50;;
83835;SDS011;73859;40.830;43.828;2023-12-04T11:55:20;29.25;;;16.67;;
83835;SDS011;73859;40.830;43.828;2023-12-04T11:57:49;30.55;;;16.42;;
83835;SDS011;73859;40.830;43.828;2023-12-04T12:05:41;35.72;;;17.05;;
83835;SDS011;73859;40.830;43.828;2023-12-04T12:08:09;32.72;;;16.98;;
83835;SDS011;73859;40.830;43.828;2023-12-04T12:10:37;31.85;;;16.98;;
83835;SDS011;73859;40.830;43.828;2023-12-04T12:39:25;40.50;;;22.20;;
83835;SDS011;73859;40.830;43.828;2023-12-04T12:41:53;45.30;;;23.30;;
83835;SDS011;73859;40.830;43.828;2023-12-04T12:44:21;41.63;;;20.80;;
83835;SDS011;73859;40.830;43.828;2023-12-04T12:46:48;36.22;;;21.23;;
83835;SDS011;73859;40.830;43.828;2023-12-04T12:49:18;51.03;;;24.35;;
83835;SDS011;73859;40.830;43.828;2023-12-04T12:52:02;39.17;;;20.63;;
83835;SDS011;73859;40.830;43.828;2023-12-04T12:54:39;39.60;;;21.65;;
83835;SDS011;73859;40.830;43.828;2023-12-04T12:57:08;37.92;;;22.80;;
83835;SDS011;73859;40.830;43.828;2023-12-04T12:59:39;45.40;;;23.23;;
83835;SDS011;73859;40.830;43.828;2023-12-04T13:02:06;41.30;;;22.00;;
83835;SDS011;73859;40.830;43.828;2023-12-04T13:04:35;45.35;;;23.13;;
83835;SDS011;73859;40.830;43.828;2023-12-04T13:09:36;41.22;;;22.50;;
83835;SDS011;73859;40.830;43.828;2023-12-04T13:12:04;37.03;;;20.05;;
83835;SDS011;73859;40.830;43.828;2023-12-04T13:14:33;38.95;;;20.10;;
83835;SDS011;73859;40.830;43.828;2023-12-04T13:17:02;41.13;;;21.30;;
83835;SDS011;73859;40.830;43.828;2023-12-04T13:19:30;44.92;;;22.23;;
83835;SDS011;73859;40.830;43.828;2023-12-04T13:22:01;46.20;;;20.75;;
83835;SDS011;73859;40.830;43.828;2023-12-04T13:24:31;48.50;;;21.23;;
83835;SDS011;73859;40.830;43.828;2023-12-04T13:26:59;44.67;;;22.23;;
83835;SDS011;73859;40.830;43.828;2023-12-04T13:29:26;46.10;;;21.77;;
83835;SDS011;73859;40.830;43.828;2023-12-04T13:31:53;40.38;;;19.73;;
83835;SDS011;73859;40.830;43.828;2023-12-04T13:34:21;43.92;;;20.73;;
83835;SDS011;73859;40.830;43.828;2023-12-04T13:36:49;44.95;;;21.30;;
83835;SDS011;73859;40.830;43.828;2023-12-04T13:39:17;41.65;;;20.05;;
83835;SDS011;73859;40.830;43.828;2023-12-04T13:41:49;42.25;;;21.45;;
83835;SDS011;73859;40.830;43.828;2023-12-04T13:44:35;43.85;;;20.42;;
83835;SDS011;73859;40.830;43.828;2023-12-04T13:47:03;54.75;;;22.40;;
83835;SDS011;73859;40.830;43.828;2023-12-04T13:51:59;41.53;;;18.05;;
83835;SDS011;73859;40.830;43.828;2023-12-04T13:54:27;45.22;;;21.88;;
83835;SDS011;73859;40.830;43.828;2023-12-04T13:57:10;42.95;;;19.10;;
83835;SDS011;73859;40.830;43.828;2023-12-04T13:59:45;42.92;;;19.83;;
83835;SDS011;73859;40.830;43.828;2023-12-04T14:02:13;38.50;;;19.48;;
83835;SDS011;73859;40.830;43.828;2023-12-04T14:04:42;38.35;;;17.25;;
83835;SDS011;73859;40.830;43.828;2023-12-04T14:07:09;37.67;;;18.60;;
83835;SDS011;73859;40.830;43.828;2023-12-04T14:09:39;42.03;;;19.95;;
83835;SDS011;73859;40.830;43.828;2023-12-04T14:12:07;48.47;;;22.23;;
83835;SDS011;73859;40.830;43.828;2023-12-04T14:17:04;41.47;;;21.50;;
83835;SDS011;73859;40.830;43.828;2023-12-04T14:19:32;45.88;;;22.13;;
83835;SDS011;73859;40.830;43.828;2023-12-04T14:22:00;53.15;;;22.75;;
83835;SDS011;73859;40.830;43.828;2023-12-04T14:24:28;49.92;;;22.60;;
83835;SDS011;73859;40.830;43.828;2023-12-04T14:26:57;53.67;;;24.60;;
83835;SDS011;73859;40.830;43.828;2023-12-04T14:29:24;50.88;;;22.80;;
83835;SDS011;73859;40.830;43.828;2023-12-04T14:31:52;44.20;;;21.98;;
83835;SDS011;73859;40.830;43.828;2023-12-04T14:34:20;46.17;;;21.73;;
83835;SDS011;73859;40.830;43.828;2023-12-04T14:36:49;47.30;;;20.67;;
83835;SDS011;73859;40.830;43.828;2023-12-04T14:39:16;44.20;;;20.33;;
83835;SDS011;73859;40.830;43.828;2023-12-04T14:41:45;46.25;;;19.17;;
83835;SDS011;73859;40.830;43.828;2023-12-04T14:44:13;59.22;;;21.38;;
83835;SDS011;73859;40.830;43.828;2023-12-04T14:46:40;42.58;;;21.42;;
83835;SDS011;73859;40.830;43.828;2023-12-04T14:49:08;45.45;;;20.35;;
83835;SDS011;73859;40.830;43.828;2023-12-04T14:51:35;62.88;;;25.45;;
83835;SDS011;73859;40.830;43.828;2023-12-04T14:54:03;58.83;;;25.30;;
83835;SDS011;73859;40.830;43.828;2023-12-04T14:56:42;49.35;;;21.77;;
83835;SDS011;73859;40.830;43.828;2023-12-04T14:59:28;56.92;;;23.83;;
83835;SDS011;73859;40.830;43.828;2023-12-04T15:02:13;56.10;;;25.90;;
83835;SDS011;73859;40.830;43.828;2023-12-04T15:04:57;49.65;;;23.27;;
83835;SDS011;73859;40.830;43.828;2023-12-04T15:07:36;46.05;;;21.25;;
83835;SDS011;73859;40.830;43.828;2023-12-04T15:10:07;41.97;;;20.58;;
83835;SDS011;73859;40.830;43.828;2023-12-04T15:12:46;57.67;;;26.25;;
83835;SDS011;73859;40.830;43.828;2023-12-04T15:15:32;48.08;;;21.30;;
83835;SDS011;73859;40.830;43.828;2023-12-04T15:18:26;53.72;;;20.45;;
83835;SDS011;73859;40.830;43.828;2023-12-04T15:21:03;45.03;;;21.95;;
83835;SDS011;73859;40.830;43.828;2023-12-04T15:25:58;38.03;;;19.98;;
83835;SDS011;73859;40.830;43.828;2023-12-04T15:28:26;42.83;;;19.50;;
83835;SDS011;73859;40.830;43.828;2023-12-04T15:30:53;44.92;;;19.05;;
83835;SDS011;73859;40.830;43.828;2023-12-04T15:33:22;49.40;;;23.55;;
83835;SDS011;73859;40.830;43.828;2023-12-04T15:35:53;47.50;;;20.35;;
83835;SDS011;73859;40.830;43.828;2023-12-04T15:38:21;63.72;;;21.40;;
83835;SDS011;73859;40.830;43.828;2023-12-04T15:40:49;53.83;;;20.63;;
83835;SDS011;73859;40.830;43.828;2023-12-04T15:43:20;47.92;;;19.60;;
83835;SDS011;73859;40.830;43.828;2023-12-04T15:45:47;45.97;;;21.33;;